createdAt,value
2022-08-30T00:00:32.168Z,0.00
2022-08-30T00:01:32.149Z,0.00
2022-08-30T00:02:32.232Z,0.00
2022-08-30T00:03:32.284Z,0.00
2022-08-30T00:04:32.103Z,0.00
2022-08-30T00:05:32.081Z,0.00
2022-08-30T00:06:32.066Z,0.00
2022-08-30T00:07:32.048Z,0.00
2022-08-30T00:08:32.028Z,0.00
2022-08-30T00:09:32.007Z,0.00
2022-08-30T00:10:31.991Z,0.00
2022-08-30T00:11:31.974Z,0.00
2022-08-30T00:12:31.956Z,0.00
2022-08-30T00:13:31.937Z,0.00
2022-08-30T00:14:31.923Z,0.00
2022-08-30T00:15:31.973Z,0.00
2022-08-30T00:16:31.886Z,0.00
2022-08-30T00:17:31.865Z,0.00
2022-08-30T00:18:31.851Z,0.00
2022-08-30T00:19:31.831Z,0.00
2022-08-30T00:20:31.815Z,0.00
2022-08-30T00:21:31.794Z,0.00
2022-08-30T00:22:31.782Z,0.00
2022-08-30T00:23:31.760Z,0.00
2022-08-30T00:24:31.743Z,0.00
2022-08-30T00:25:31.728Z,0.00
2022-08-30T00:26:31.711Z,0.00
2022-08-30T00:27:31.691Z,0.00
2022-08-30T00:28:31.675Z,0.00
2022-08-30T00:29:31.657Z,0.00
2022-08-30T00:30:31.639Z,0.00
2022-08-30T00:31:31.687Z,0.00
2022-08-30T00:32:31.605Z,0.00
2022-08-30T00:33:31.589Z,0.00
2022-08-30T00:34:31.571Z,0.00
2022-08-30T00:35:31.548Z,0.00
2022-08-30T00:36:31.554Z,0.00
2022-08-30T00:37:31.511Z,0.00
2022-08-30T00:38:31.497Z,0.00
2022-08-30T00:39:31.480Z,0.00
2022-08-30T00:40:31.503Z,0.00
2022-08-30T00:41:31.441Z,0.00
2022-08-30T00:42:31.428Z,0.00
2022-08-30T00:43:31.407Z,0.00
2022-08-30T00:44:31.390Z,0.00
2022-08-30T00:45:31.373Z,0.00
2022-08-30T00:46:31.438Z,0.00
2022-08-30T00:47:31.338Z,0.00
2022-08-30T00:48:31.320Z,0.00
2022-08-30T00:49:31.300Z,0.00
2022-08-30T00:50:31.293Z,0.00
2022-08-30T00:51:31.304Z,0.00
2022-08-30T00:52:31.250Z,0.00
2022-08-30T00:53:31.229Z,0.00
2022-08-30T00:54:31.213Z,0.00
2022-08-30T00:55:31.194Z,0.00
2022-08-30T00:56:31.178Z,0.00
2022-08-30T00:57:31.158Z,0.00
2022-08-30T00:58:31.141Z,0.00
2022-08-30T00:59:31.123Z,0.00
2022-08-30T01:00:31.106Z,0.00
2022-08-30T01:01:31.910Z,0.00
2022-08-30T01:02:31.115Z,0.00
2022-08-30T01:03:31.054Z,0.00
2022-08-30T01:04:31.034Z,0.00
2022-08-30T01:05:31.015Z,0.00
2022-08-30T01:06:32.619Z,0.00
2022-08-30T01:07:30.980Z,0.00
2022-08-30T01:08:30.962Z,0.00
2022-08-30T01:09:30.943Z,0.00
2022-08-30T01:10:30.929Z,0.00
2022-08-30T01:11:30.911Z,0.00
2022-08-30T01:12:30.890Z,0.00
2022-08-30T01:13:30.883Z,0.00
2022-08-30T01:14:30.857Z,0.00
2022-08-30T01:15:30.864Z,0.00
2022-08-30T01:16:30.820Z,0.00
2022-08-30T01:17:30.800Z,0.00
2022-08-30T01:18:30.786Z,0.00
2022-08-30T01:19:30.764Z,0.00
2022-08-30T01:20:30.749Z,0.00
2022-08-30T01:21:31.263Z,0.00
2022-08-30T01:22:30.712Z,0.00
2022-08-30T01:23:30.693Z,0.00
2022-08-30T01:24:30.681Z,0.00
2022-08-30T01:25:30.658Z,0.00
2022-08-30T01:26:30.652Z,0.00
2022-08-30T01:27:30.623Z,0.00
2022-08-30T01:28:30.608Z,0.00
2022-08-30T01:29:30.587Z,0.00
2022-08-30T01:30:30.624Z,0.00
2022-08-30T01:31:30.551Z,0.00
2022-08-30T01:32:30.565Z,0.00
2022-08-30T01:33:30.515Z,0.00
2022-08-30T01:34:30.498Z,0.00
2022-08-30T01:35:30.480Z,0.00
2022-08-30T01:36:30.495Z,0.00
2022-08-30T01:37:30.441Z,0.00
2022-08-30T01:38:30.426Z,0.00
2022-08-30T01:39:30.410Z,0.00
2022-08-30T01:40:30.422Z,0.00
2022-08-30T01:41:30.369Z,0.00
2022-08-30T01:42:30.354Z,0.00
2022-08-30T01:43:30.332Z,0.00
2022-08-30T01:44:30.315Z,0.00
2022-08-30T01:45:30.295Z,0.00
2022-08-30T01:46:30.339Z,0.00
2022-08-30T01:47:30.262Z,0.00
2022-08-30T01:48:31.213Z,0.00
2022-08-30T01:49:30.226Z,0.00
2022-08-30T01:50:30.213Z,0.00
2022-08-30T01:51:30.190Z,0.00
2022-08-30T01:52:30.175Z,0.00
2022-08-30T01:53:30.151Z,0.00
2022-08-30T01:54:33.380Z,0.00
2022-08-30T01:55:30.120Z,0.00
2022-08-30T01:56:30.102Z,0.00
2022-08-30T01:57:30.081Z,0.00
2022-08-30T01:58:30.064Z,0.00
2022-08-30T01:59:30.045Z,0.00
2022-08-30T02:00:30.025Z,0.00
2022-08-30T02:01:30.047Z,0.00
2022-08-30T02:02:29.991Z,0.00
2022-08-30T02:03:30.014Z,0.00
2022-08-30T02:04:29.954Z,0.00
2022-08-30T02:05:29.938Z,0.00
2022-08-30T02:06:29.921Z,0.00
2022-08-30T02:07:29.900Z,0.00
2022-08-30T02:08:29.883Z,0.00
2022-08-30T02:09:29.861Z,0.00
2022-08-30T02:10:29.846Z,0.00
2022-08-30T02:11:29.828Z,0.00
2022-08-30T02:12:29.808Z,0.00
2022-08-30T02:13:29.789Z,0.00
2022-08-30T02:14:29.774Z,0.00
2022-08-30T02:15:29.753Z,0.00
2022-08-30T02:16:29.804Z,0.00
2022-08-30T02:17:29.720Z,0.00
2022-08-30T02:18:29.701Z,0.00
2022-08-30T02:19:29.681Z,0.00
2022-08-30T02:20:29.665Z,0.00
2022-08-30T02:21:29.642Z,0.00
2022-08-30T02:22:29.627Z,0.00
2022-08-30T02:23:29.615Z,0.00
2022-08-30T02:24:29.591Z,0.00
2022-08-30T02:25:29.571Z,0.00
2022-08-30T02:26:29.554Z,0.00
2022-08-30T02:27:29.536Z,0.00
2022-08-30T02:28:29.520Z,0.00
2022-08-30T02:29:29.499Z,0.00
2022-08-30T02:30:29.541Z,0.00
2022-08-30T02:31:29.467Z,0.00
2022-08-30T02:32:29.447Z,0.00
2022-08-30T02:33:29.429Z,0.00
2022-08-30T02:34:29.410Z,0.00
2022-08-30T02:35:29.390Z,0.00
2022-08-30T02:36:29.373Z,0.00
2022-08-30T02:37:29.353Z,0.00
2022-08-30T02:38:29.335Z,0.00
2022-08-30T02:39:29.317Z,0.00
2022-08-30T02:40:29.374Z,0.00
2022-08-30T02:41:29.278Z,0.00
2022-08-30T02:42:29.263Z,0.00
2022-08-30T02:43:29.242Z,0.00
2022-08-30T02:44:29.226Z,0.00
2022-08-30T02:45:29.210Z,0.00
2022-08-30T02:46:29.252Z,0.00
2022-08-30T02:47:29.169Z,0.00
2022-08-30T02:48:29.153Z,0.00
2022-08-30T02:49:33.580Z,0.00
2022-08-30T02:50:29.119Z,0.00
2022-08-30T02:51:29.098Z,0.00
2022-08-30T02:52:29.079Z,0.00
2022-08-30T02:53:29.060Z,0.00
2022-08-30T02:54:29.043Z,0.00
2022-08-30T02:55:29.023Z,0.00
2022-08-30T02:56:29.010Z,0.00
2022-08-30T02:57:28.992Z,0.00
2022-08-30T02:58:28.969Z,0.00
2022-08-30T02:59:28.965Z,0.00
2022-08-30T03:00:28.933Z,0.00
2022-08-30T03:01:29.492Z,0.00
2022-08-30T03:02:28.896Z,0.00
2022-08-30T03:03:28.960Z,0.00
2022-08-30T03:04:28.858Z,0.00
2022-08-30T03:05:28.840Z,0.00
2022-08-30T03:06:28.824Z,0.00
2022-08-30T03:07:28.803Z,0.00
2022-08-30T03:08:28.787Z,0.00
2022-08-30T03:09:28.765Z,0.00
2022-08-30T03:10:28.752Z,0.00
2022-08-30T03:11:28.733Z,0.00
2022-08-30T03:12:28.713Z,0.00
2022-08-30T03:13:28.694Z,0.00
2022-08-30T03:14:28.678Z,0.00
2022-08-30T03:15:28.659Z,0.00
2022-08-30T03:16:28.691Z,0.00
2022-08-30T03:17:28.620Z,0.00
2022-08-30T03:18:28.602Z,0.00
2022-08-30T03:19:28.584Z,0.00
2022-08-30T03:20:28.566Z,0.00
2022-08-30T03:21:28.550Z,0.00
2022-08-30T03:22:28.528Z,0.00
2022-08-30T03:23:28.510Z,0.00
2022-08-30T03:24:28.493Z,0.00
2022-08-30T03:25:28.472Z,0.00
2022-08-30T03:26:28.455Z,0.00
2022-08-30T03:27:28.437Z,0.00
2022-08-30T03:28:28.418Z,0.00
2022-08-30T03:29:28.399Z,0.00
2022-08-30T03:30:28.386Z,0.00
2022-08-30T03:31:28.412Z,0.00
2022-08-30T03:32:28.346Z,0.00
2022-08-30T03:33:28.330Z,0.00
2022-08-30T03:34:28.304Z,0.00
2022-08-30T03:35:28.290Z,0.00
2022-08-30T03:36:28.269Z,0.00
2022-08-30T03:37:28.253Z,0.00
2022-08-30T03:38:28.234Z,0.00
2022-08-30T03:39:28.215Z,0.00
2022-08-30T03:40:28.257Z,0.00
2022-08-30T03:41:28.177Z,0.00
2022-08-30T03:42:28.157Z,0.00
2022-08-30T03:43:28.141Z,0.00
2022-08-30T03:44:28.119Z,0.00
2022-08-30T03:45:28.176Z,0.00
2022-08-30T03:46:28.087Z,0.00
2022-08-30T03:47:28.067Z,0.00
2022-08-30T03:48:28.047Z,0.00
2022-08-30T03:49:28.032Z,0.00
2022-08-30T03:50:28.014Z,0.00
2022-08-30T03:51:27.994Z,0.00
2022-08-30T03:52:27.976Z,0.00
2022-08-30T03:53:27.958Z,0.00
2022-08-30T03:54:27.937Z,0.00
2022-08-30T03:55:27.922Z,0.00
2022-08-30T03:56:27.901Z,0.00
2022-08-30T03:57:27.884Z,0.00
2022-08-30T03:58:27.861Z,0.00
2022-08-30T03:59:27.846Z,0.00
2022-08-30T04:00:27.829Z,0.00
2022-08-30T04:01:27.919Z,0.00
2022-08-30T04:02:27.833Z,0.00
2022-08-30T04:03:27.772Z,0.00
2022-08-30T04:04:27.752Z,0.00
2022-08-30T04:05:27.736Z,0.00
2022-08-30T04:06:27.714Z,0.00
2022-08-30T04:07:27.699Z,0.00
2022-08-30T04:08:27.676Z,0.00
2022-08-30T04:09:27.661Z,0.00
2022-08-30T04:10:27.643Z,0.00
2022-08-30T04:11:27.624Z,0.00
2022-08-30T04:12:27.604Z,0.00
2022-08-30T04:13:27.586Z,0.00
2022-08-30T04:14:27.569Z,0.00
2022-08-30T04:15:27.550Z,0.00
2022-08-30T04:16:27.584Z,0.00
2022-08-30T04:17:27.510Z,0.00
2022-08-30T04:18:27.493Z,0.00
2022-08-30T04:19:27.476Z,0.00
2022-08-30T04:20:27.464Z,0.00
2022-08-30T04:21:27.436Z,4.00
2022-08-30T04:22:27.416Z,4.00
2022-08-30T04:23:27.400Z,0.00
2022-08-30T04:24:27.377Z,0.00
2022-08-30T04:25:27.362Z,4.00
2022-08-30T04:26:29.329Z,4.00
2022-08-30T04:27:27.325Z,4.00
2022-08-30T04:28:27.305Z,0.00
2022-08-30T04:29:27.286Z,4.00
2022-08-30T04:30:27.266Z,4.00
2022-08-30T04:31:27.339Z,4.00
2022-08-30T04:32:27.234Z,4.00
2022-08-30T04:33:27.213Z,8.00
2022-08-30T04:34:27.192Z,4.00
2022-08-30T04:35:27.179Z,8.00
2022-08-30T04:36:27.154Z,8.00
2022-08-30T04:37:27.152Z,8.00
2022-08-30T04:39:44.616Z,12.00
2022-08-30T04:40:44.681Z,12.00
2022-08-30T04:41:44.587Z,16.00
2022-08-30T04:42:44.563Z,12.00
2022-08-30T04:44:42.009Z,16.00
2022-08-30T04:45:42.122Z,20.00
2022-08-30T04:46:44.381Z,20.00
2022-08-30T04:47:41.953Z,20.00
2022-08-30T04:48:41.935Z,20.00
2022-08-30T04:49:41.918Z,20.00
2022-08-30T04:50:41.895Z,24.00
2022-08-30T04:51:41.877Z,24.00
2022-08-30T04:52:41.860Z,24.00
2022-08-30T04:53:41.840Z,28.00
2022-08-30T04:54:41.822Z,32.00
2022-08-30T04:55:41.803Z,32.00
2022-08-30T04:56:41.781Z,32.00
2022-08-30T04:57:41.766Z,36.00
2022-08-30T04:58:41.746Z,36.00
2022-08-30T04:59:41.729Z,36.00
2022-08-30T05:00:41.751Z,36.00
2022-08-30T05:01:45.527Z,40.00
2022-08-30T05:02:41.732Z,40.00
2022-08-30T05:03:41.653Z,40.00
2022-08-30T05:04:41.636Z,48.00
2022-08-30T05:05:41.618Z,48.00
2022-08-30T05:06:41.595Z,48.00
2022-08-30T05:07:41.580Z,52.00
2022-08-30T05:08:41.566Z,52.00
2022-08-30T05:09:41.542Z,52.00
2022-08-30T05:10:41.522Z,56.00
2022-08-30T05:11:41.511Z,56.00
2022-08-30T05:12:41.490Z,56.00
2022-08-30T05:13:41.467Z,56.00
2022-08-30T05:14:41.473Z,60.00
2022-08-30T05:15:41.432Z,64.00
2022-08-30T05:16:41.590Z,64.00
2022-08-30T05:17:41.392Z,64.00
2022-08-30T05:18:41.374Z,68.00
2022-08-30T05:19:41.356Z,68.00
2022-08-30T05:20:41.334Z,68.00
2022-08-30T05:21:41.433Z,68.00
2022-08-30T05:22:41.298Z,72.00
2022-08-30T05:23:41.282Z,72.00
2022-08-30T05:24:41.261Z,76.00
2022-08-30T05:25:41.243Z,76.00
2022-08-30T05:26:41.293Z,76.00
2022-08-30T05:27:41.242Z,80.00
2022-08-30T05:28:41.184Z,80.00
2022-08-30T05:29:41.166Z,84.00
2022-08-30T05:30:41.147Z,84.00
2022-08-30T05:35:01.912Z,92.00
2022-08-30T05:36:01.897Z,92.00
2022-08-30T05:37:02.054Z,92.00
2022-08-30T05:38:01.863Z,96.00
2022-08-30T05:39:01.834Z,96.00
2022-08-30T05:40:01.834Z,96.00
2022-08-30T05:41:06.420Z,96.00
2022-08-30T05:42:01.780Z,104.00
2022-08-30T05:43:01.759Z,104.00
2022-08-30T05:44:01.745Z,104.00
2022-08-30T05:45:01.739Z,104.00
2022-08-30T05:46:01.705Z,104.00
2022-08-30T05:47:01.688Z,108.00
2022-08-30T05:48:01.668Z,108.00
2022-08-30T05:49:01.646Z,108.00
2022-08-30T05:50:01.635Z,108.00
2022-08-30T05:51:01.610Z,112.00
2022-08-30T05:52:01.595Z,112.00
2022-08-30T05:53:01.573Z,116.00
2022-08-30T05:54:01.556Z,116.00
2022-08-30T05:55:01.535Z,116.00
2022-08-30T05:56:01.529Z,116.00
2022-08-30T05:57:01.500Z,120.00
2022-08-30T05:58:01.483Z,120.00
2022-08-30T05:59:01.461Z,120.00
2022-08-30T06:00:01.443Z,124.00
2022-08-30T06:01:01.424Z,128.00
2022-08-30T06:02:01.458Z,128.00
2022-08-30T06:03:01.467Z,128.00
2022-08-30T06:04:03.950Z,132.00
2022-08-30T06:05:01.349Z,132.00
2022-08-30T06:06:01.331Z,132.00
2022-08-30T06:07:01.311Z,136.00
2022-08-30T06:08:01.293Z,136.00
2022-08-30T06:09:01.271Z,140.00
2022-08-30T06:10:01.254Z,140.00
2022-08-30T06:11:01.234Z,140.00
2022-08-30T06:12:01.218Z,140.00
2022-08-30T06:13:01.201Z,144.00
2022-08-30T06:14:01.183Z,144.00
2022-08-30T06:15:01.159Z,148.00
2022-08-30T06:16:01.191Z,148.00
2022-08-30T06:17:01.203Z,148.00
2022-08-30T06:18:01.109Z,148.00
2022-08-30T06:19:01.085Z,148.00
2022-08-30T06:20:01.138Z,152.00
2022-08-30T06:21:01.049Z,152.00
2022-08-30T06:22:01.031Z,156.00
2022-08-30T06:23:01.015Z,156.00
2022-08-30T06:24:00.992Z,156.00
2022-08-30T06:25:00.976Z,160.00
2022-08-30T06:26:00.959Z,160.00
2022-08-30T06:27:00.938Z,160.00
2022-08-30T06:28:00.918Z,164.00
2022-08-30T06:29:00.899Z,164.00
2022-08-30T06:30:00.883Z,164.00
2022-08-30T06:31:00.925Z,168.00
2022-08-30T06:32:00.842Z,168.00
2022-08-30T06:33:00.825Z,172.00
2022-08-30T06:34:00.806Z,172.00
2022-08-30T06:35:00.787Z,172.00
2022-08-30T06:36:04.279Z,172.00
2022-08-30T06:37:00.752Z,176.00
2022-08-30T06:38:00.733Z,176.00
2022-08-30T06:39:00.713Z,176.00
2022-08-30T06:40:00.742Z,176.00
2022-08-30T06:41:00.673Z,180.00
2022-08-30T06:42:00.657Z,180.00
2022-08-30T06:43:00.638Z,184.00
2022-08-30T06:44:00.619Z,184.00
2022-08-30T06:45:00.599Z,184.00
2022-08-30T06:46:00.584Z,188.00
2022-08-30T06:47:00.598Z,192.00
2022-08-30T06:48:00.551Z,192.00
2022-08-30T06:49:00.560Z,192.00
2022-08-30T06:50:00.507Z,192.00
2022-08-30T06:51:00.489Z,192.00
2022-08-30T06:52:00.472Z,196.00
2022-08-30T06:53:00.449Z,196.00
2022-08-30T06:54:00.434Z,196.00
2022-08-30T06:55:00.418Z,196.00
2022-08-30T06:56:00.399Z,200.00
2022-08-30T06:57:00.387Z,200.00
2022-08-30T06:58:00.359Z,204.00
2022-08-30T06:59:00.340Z,208.00
2022-08-30T07:00:00.325Z,208.00
2022-08-30T07:01:00.303Z,208.00
2022-08-30T07:02:00.359Z,208.00
2022-08-30T07:03:00.300Z,208.00
2022-08-30T07:04:00.247Z,212.00
2022-08-30T07:05:00.231Z,212.00
2022-08-30T07:06:00.211Z,216.00
2022-08-30T07:07:00.191Z,216.00
2022-08-30T07:08:00.174Z,220.00
2022-08-30T07:09:00.154Z,220.00
2022-08-30T07:10:00.140Z,224.00
2022-08-30T07:11:00.117Z,224.00
2022-08-30T07:12:00.107Z,224.00
2022-08-30T07:13:00.083Z,224.00
2022-08-30T07:14:00.072Z,228.00
2022-08-30T07:15:00.046Z,228.00
2022-08-30T07:16:00.082Z,228.00
2022-08-30T07:17:00.006Z,228.00
2022-08-30T07:17:59.991Z,232.00
2022-08-30T07:18:59.969Z,232.00
2022-08-30T07:19:59.956Z,236.00
2022-08-30T07:20:59.934Z,232.00
2022-08-30T07:21:59.919Z,236.00
2022-08-30T07:22:59.897Z,240.00
2022-08-30T07:23:59.882Z,236.00
2022-08-30T07:24:59.859Z,240.00
2022-08-30T07:25:59.847Z,236.00
2022-08-30T07:26:59.827Z,236.00
2022-08-30T07:27:59.810Z,236.00
2022-08-30T07:28:59.809Z,236.00
2022-08-30T07:29:59.773Z,244.00
2022-08-30T07:30:59.811Z,240.00
2022-08-30T07:31:59.735Z,240.00
2022-08-30T07:32:59.714Z,244.00
2022-08-30T07:33:59.698Z,244.00
2022-08-30T07:34:59.679Z,248.00
2022-08-30T07:35:59.727Z,240.00
2022-08-30T07:36:59.642Z,248.00
2022-08-30T07:37:59.624Z,248.00
2022-08-30T07:38:59.604Z,248.00
2022-08-30T07:39:59.624Z,248.00
2022-08-30T07:40:59.567Z,252.00
2022-08-30T07:41:59.550Z,252.00
2022-08-30T07:42:59.532Z,252.00
2022-08-30T07:43:59.514Z,256.00
2022-08-30T07:44:59.495Z,256.00
2022-08-30T07:45:59.522Z,260.00
2022-08-30T07:46:59.458Z,260.00
2022-08-30T07:47:59.441Z,260.00
2022-08-30T07:48:59.422Z,260.00
2022-08-30T07:49:59.409Z,260.00
2022-08-30T07:51:04.571Z,264.00
2022-08-30T07:51:59.367Z,264.00
2022-08-30T07:52:59.350Z,268.00
2022-08-30T07:53:59.334Z,268.00
2022-08-30T07:54:59.314Z,272.00
2022-08-30T07:55:59.295Z,272.00
2022-08-30T07:56:59.278Z,268.00
2022-08-30T07:57:59.360Z,272.00
2022-08-30T07:58:59.241Z,280.00
2022-08-30T07:59:59.225Z,284.00
2022-08-30T08:00:59.205Z,284.00
2022-08-30T08:01:59.237Z,284.00
2022-08-30T08:02:59.292Z,288.00
2022-08-30T08:03:59.152Z,292.00
2022-08-30T08:04:59.132Z,288.00
2022-08-30T08:05:59.116Z,292.00
2022-08-30T08:06:59.097Z,292.00
2022-08-30T08:07:59.078Z,296.00
2022-08-30T08:08:59.058Z,296.00
2022-08-30T08:09:59.046Z,296.00
2022-08-30T08:10:59.023Z,300.00
2022-08-30T08:11:59.006Z,308.00
2022-08-30T08:12:58.985Z,308.00
2022-08-30T08:13:58.971Z,304.00
2022-08-30T08:14:58.951Z,304.00
2022-08-30T08:15:58.965Z,304.00
2022-08-30T08:16:58.915Z,308.00
2022-08-30T08:17:58.898Z,308.00
2022-08-30T08:18:58.879Z,308.00
2022-08-30T08:19:58.862Z,308.00
2022-08-30T08:20:58.850Z,316.00
2022-08-30T08:22:19.451Z,316.00
2022-08-30T08:22:58.812Z,312.00
2022-08-30T08:23:58.797Z,312.00
2022-08-30T08:24:58.770Z,316.00
2022-08-30T08:25:58.757Z,320.00
2022-08-30T08:26:58.736Z,320.00
2022-08-30T08:27:58.720Z,324.00
2022-08-30T08:28:58.700Z,328.00
2022-08-30T08:29:58.683Z,332.00
2022-08-30T08:30:58.706Z,340.00
2022-08-30T08:31:58.649Z,332.00
2022-08-30T08:32:58.628Z,324.00
2022-08-30T08:33:58.618Z,332.00
2022-08-30T08:34:58.594Z,328.00
2022-08-30T08:35:58.578Z,328.00
2022-08-30T08:36:58.558Z,336.00
2022-08-30T08:37:58.542Z,340.00
2022-08-30T08:38:58.530Z,344.00
2022-08-30T08:39:58.595Z,340.00
2022-08-30T08:40:58.486Z,340.00
2022-08-30T08:41:58.474Z,344.00
2022-08-30T08:42:58.461Z,336.00
2022-08-30T08:43:58.434Z,336.00
2022-08-30T08:44:58.416Z,340.00
2022-08-30T08:45:58.429Z,352.00
2022-08-30T08:46:58.389Z,364.00
2022-08-30T08:47:58.364Z,356.00
2022-08-30T08:49:00.745Z,360.00
2022-08-30T08:49:58.330Z,360.00
2022-08-30T08:51:00.693Z,344.00
2022-08-30T08:51:58.294Z,352.00
2022-08-30T08:52:58.278Z,356.00
2022-08-30T08:53:58.258Z,368.00
2022-08-30T08:54:59.168Z,368.00
2022-08-30T08:55:58.231Z,380.00
2022-08-30T08:56:58.279Z,392.00
2022-08-30T08:57:58.186Z,400.00
2022-08-30T08:58:58.169Z,392.00
2022-08-30T08:59:58.152Z,396.00
2022-08-30T09:00:58.141Z,392.00
2022-08-30T09:01:58.355Z,396.00
2022-08-30T09:02:58.101Z,408.00
2022-08-30T09:03:58.084Z,400.00
2022-08-30T09:04:58.165Z,416.00
2022-08-30T09:05:58.048Z,420.00
2022-08-30T09:06:58.026Z,424.00
2022-08-30T09:07:58.019Z,424.00
2022-08-30T09:08:57.993Z,440.00
2022-08-30T09:09:57.977Z,464.00
2022-08-30T09:10:57.960Z,480.00
2022-08-30T09:11:57.941Z,476.00
2022-08-30T09:13:00.049Z,476.00
2022-08-30T09:13:57.907Z,472.00
2022-08-30T09:14:57.888Z,468.00
2022-08-30T09:15:59.546Z,460.00
2022-08-30T09:16:57.855Z,468.00
2022-08-30T09:17:57.838Z,508.00
2022-08-30T09:18:57.820Z,536.00
2022-08-30T09:19:57.803Z,564.00
2022-08-30T09:20:57.783Z,584.00
2022-08-30T09:21:57.768Z,568.00
2022-08-30T09:22:57.747Z,536.00
2022-08-30T09:23:57.735Z,560.00
2022-08-30T09:24:57.713Z,572.00
2022-08-30T09:25:57.699Z,576.00
2022-08-30T09:26:57.678Z,580.00
2022-08-30T09:27:57.668Z,572.00
2022-08-30T09:28:57.646Z,592.00
2022-08-30T09:29:57.629Z,604.00
2022-08-30T09:30:57.633Z,592.00
2022-08-30T09:32:25.073Z,596.00
2022-08-30T09:32:57.626Z,600.00
2022-08-30T09:33:57.561Z,600.00
2022-08-30T09:34:57.544Z,608.00
2022-08-30T09:35:57.524Z,624.00
2022-08-30T09:36:57.508Z,648.00
2022-08-30T09:37:57.491Z,676.00
2022-08-30T09:38:57.479Z,736.00
2022-08-30T09:39:57.501Z,756.00
2022-08-30T09:40:57.438Z,756.00
2022-08-30T09:41:57.425Z,764.00
2022-08-30T09:42:57.403Z,812.00
2022-08-30T09:43:57.388Z,816.00
2022-08-30T09:44:57.374Z,856.00
2022-08-30T09:45:57.438Z,876.00
2022-08-30T09:46:57.669Z,872.00
2022-08-30T09:47:57.321Z,900.00
2022-08-30T09:48:57.302Z,952.00
2022-08-30T09:49:57.284Z,1196.00
2022-08-30T09:50:57.268Z,1664.00
2022-08-30T09:51:57.248Z,1828.00
2022-08-30T09:52:57.230Z,1648.00
2022-08-30T09:54:57.200Z,1672.00
2022-08-30T09:55:57.189Z,1588.00
2022-08-30T09:56:57.175Z,1516.00
2022-08-30T09:57:57.145Z,1440.00
2022-08-30T09:58:57.132Z,1448.00
2022-08-30T09:59:57.115Z,1492.00
2022-08-30T10:00:57.158Z,1472.00
2022-08-30T10:01:57.078Z,1436.00
2022-08-30T10:02:57.065Z,1488.00
2022-08-30T10:03:57.060Z,1484.00
2022-08-30T10:04:57.040Z,1504.00
2022-08-30T10:05:57.743Z,1508.00
2022-08-30T10:06:57.025Z,1496.00
2022-08-30T10:07:56.981Z,1468.00
2022-08-30T10:08:56.966Z,1460.00
2022-08-30T10:09:56.947Z,1428.00
2022-08-30T10:10:56.936Z,1412.00
2022-08-30T10:11:56.916Z,1364.00
2022-08-30T10:12:56.901Z,1352.00
2022-08-30T10:13:56.890Z,1360.00
2022-08-30T10:14:56.869Z,1384.00
2022-08-30T10:15:56.859Z,1256.00
2022-08-30T10:16:56.838Z,1324.00
2022-08-30T10:17:56.821Z,1320.00
2022-08-30T10:18:56.823Z,1264.00
2022-08-30T10:19:56.789Z,1288.00
2022-08-30T10:20:56.776Z,1252.00
2022-08-30T10:21:56.757Z,1232.00
2022-08-30T10:22:58.759Z,1204.00
2022-08-30T10:23:56.728Z,1220.00
2022-08-30T10:24:56.715Z,1196.00
2022-08-30T10:25:56.695Z,1208.00
2022-08-30T10:26:56.682Z,1200.00
2022-08-30T10:27:56.664Z,1200.00
2022-08-30T10:28:56.653Z,1244.00
2022-08-30T10:29:56.637Z,1244.00
2022-08-30T10:30:56.622Z,1188.00
2022-08-30T10:31:56.604Z,1192.00
2022-08-30T10:32:56.591Z,1232.00
2022-08-30T10:33:56.573Z,1264.00
2022-08-30T10:34:56.560Z,1264.00
2022-08-30T10:35:56.544Z,1200.00
2022-08-30T10:36:56.530Z,1260.00
2022-08-30T10:37:56.513Z,1296.00
2022-08-30T10:38:56.537Z,1264.00
2022-08-30T10:39:56.532Z,1284.00
2022-08-30T10:40:56.469Z,1268.00
2022-08-30T10:41:56.454Z,1284.00
2022-08-30T10:42:56.441Z,1280.00
2022-08-30T10:43:56.424Z,1264.00
2022-08-30T10:44:56.416Z,1248.00
2022-08-30T10:45:56.392Z,1264.00
2022-08-30T10:46:56.378Z,1260.00
2022-08-30T10:47:56.364Z,1280.00
2022-08-30T10:48:56.348Z,1292.00
2022-08-30T10:49:56.329Z,1264.00
2022-08-30T10:50:56.330Z,1284.00
2022-08-30T10:51:58.848Z,1284.00
2022-08-30T10:52:56.288Z,1300.00
2022-08-30T10:53:56.274Z,1272.00
2022-08-30T10:54:56.257Z,1308.00
2022-08-30T10:55:56.240Z,1256.00
2022-08-30T10:56:56.227Z,1248.00
2022-08-30T10:57:56.209Z,1208.00
2022-08-30T10:58:56.196Z,1220.00
2022-08-30T10:59:56.182Z,1180.00
2022-08-30T11:00:56.233Z,1176.00
2022-08-30T11:01:56.154Z,1184.00
2022-08-30T11:02:56.135Z,1168.00
2022-08-30T11:03:56.120Z,1168.00
2022-08-30T11:04:56.108Z,1132.00
2022-08-30T11:05:56.088Z,1040.00
2022-08-30T11:06:56.077Z,1056.00
2022-08-30T11:07:56.058Z,996.00
2022-08-30T11:08:56.047Z,952.00
2022-08-30T11:09:56.027Z,924.00
2022-08-30T11:10:56.015Z,848.00
2022-08-30T11:11:56.001Z,708.00
2022-08-30T11:12:55.987Z,628.00
2022-08-30T11:13:57.493Z,616.00
2022-08-30T11:14:55.955Z,600.00
2022-08-30T11:15:55.957Z,612.00
2022-08-30T11:16:55.922Z,620.00
2022-08-30T11:17:55.911Z,616.00
2022-08-30T11:18:55.894Z,620.00
2022-08-30T11:19:55.877Z,620.00
2022-08-30T11:20:55.862Z,612.00
2022-08-30T11:21:55.847Z,604.00
2022-08-30T11:22:55.836Z,572.00
2022-08-30T11:23:55.815Z,560.00
2022-08-30T11:24:55.800Z,556.00
2022-08-30T11:25:57.892Z,560.00
2022-08-30T11:26:55.769Z,576.00
2022-08-30T11:27:55.754Z,584.00
2022-08-30T11:28:55.742Z,612.00
2022-08-30T11:29:55.732Z,616.00
2022-08-30T11:30:55.747Z,628.00
2022-08-30T11:31:55.721Z,604.00
2022-08-30T11:32:55.746Z,608.00
2022-08-30T11:33:55.781Z,616.00
2022-08-30T11:34:55.695Z,640.00
2022-08-30T11:35:55.661Z,624.00
2022-08-30T11:36:55.676Z,612.00
2022-08-30T11:37:55.626Z,604.00
2022-08-30T11:38:55.641Z,604.00
2022-08-30T11:39:55.629Z,604.00
2022-08-30T11:40:55.602Z,584.00
2022-08-30T11:41:55.605Z,624.00
2022-08-30T11:42:55.594Z,660.00
2022-08-30T11:43:55.554Z,620.00
2022-08-30T11:44:55.548Z,584.00
2022-08-30T11:45:55.645Z,568.00
2022-08-30T11:46:55.506Z,548.00
2022-08-30T11:47:55.540Z,556.00
2022-08-30T11:48:55.908Z,592.00
2022-08-30T11:49:55.411Z,600.00
2022-08-30T11:50:55.412Z,600.00
2022-08-30T11:52:23.636Z,632.00
2022-08-30T11:52:55.364Z,604.00
2022-08-30T11:53:55.382Z,596.00
2022-08-30T11:54:55.347Z,596.00
2022-08-30T11:55:55.333Z,600.00
2022-08-30T11:56:55.338Z,588.00
2022-08-30T11:57:55.294Z,600.00
2022-08-30T11:58:55.380Z,624.00
2022-08-30T11:59:55.284Z,632.00
2022-08-30T12:00:55.290Z,628.00
2022-08-30T12:01:55.466Z,632.00
2022-08-30T12:02:55.442Z,632.00
2022-08-30T12:03:55.252Z,636.00
2022-08-30T12:04:55.287Z,644.00
2022-08-30T12:05:55.247Z,628.00
2022-08-30T12:06:55.193Z,620.00
2022-08-30T12:07:55.176Z,572.00
2022-08-30T12:08:59.999Z,560.00
2022-08-30T12:09:55.154Z,576.00
2022-08-30T12:10:56.272Z,576.00
2022-08-30T12:11:55.106Z,588.00
2022-08-30T12:12:55.078Z,584.00
2022-08-30T12:13:55.076Z,608.00
2022-08-30T12:14:55.131Z,648.00
2022-08-30T12:15:55.060Z,612.00
2022-08-30T12:16:55.058Z,580.00
2022-08-30T12:17:55.000Z,568.00
2022-08-30T12:18:55.013Z,556.00
2022-08-30T12:19:54.967Z,552.00
2022-08-30T12:20:54.987Z,548.00
2022-08-30T12:21:54.978Z,524.00
2022-08-30T12:22:54.952Z,516.00
2022-08-30T12:23:54.904Z,520.00
2022-08-30T12:24:54.914Z,520.00
2022-08-30T12:25:54.887Z,524.00
2022-08-30T12:26:54.883Z,528.00
2022-08-30T12:27:54.846Z,536.00
2022-08-30T12:28:54.846Z,492.00
2022-08-30T12:29:54.835Z,504.00
2022-08-30T12:30:54.883Z,484.00
2022-08-30T12:31:54.914Z,496.00
2022-08-30T12:32:54.864Z,500.00
2022-08-30T12:33:54.760Z,508.00
2022-08-30T12:34:54.755Z,532.00
2022-08-30T12:35:54.732Z,860.00
2022-08-30T12:36:54.721Z,2000.00
2022-08-30T12:37:54.690Z,2356.00
2022-08-30T12:38:54.697Z,1764.00
2022-08-30T12:39:54.801Z,912.00
2022-08-30T12:40:54.655Z,644.00
2022-08-30T12:41:54.640Z,544.00
2022-08-30T12:42:54.627Z,516.00
2022-08-30T12:43:54.661Z,508.00
2022-08-30T12:44:54.663Z,516.00
2022-08-30T12:45:54.624Z,508.00
2022-08-30T12:46:58.991Z,508.00
2022-08-30T12:47:54.559Z,512.00
2022-08-30T12:48:54.514Z,516.00
2022-08-30T12:49:54.543Z,520.00
2022-08-30T12:50:54.526Z,520.00
2022-08-30T12:51:54.501Z,536.00